Grimsby, Canada
Current Conditions -  °F | °C
As of 2:00 AM on Thursday 18 Dec 2014 (Local Time) from CYHM Reporting Station
Snow Showers Snow Showers  
Wind Chill: 17°   Ceiling: 1600
Heat Index: 28°   Visibility: 10mi
Dew Point: 25°   Wind: 15mph
Humidity: 86%   Direction: 250°WSW
Pressure: 30.03"   Gusts: 22mph
Location:  43.2°N, 79.58°W
Report Text: CYHM 180700Z 25013G19KT 10SM -SHSN FEW010 OVC016 M02/M04 A3003 RMK CF2SC6 SLP180
Loading
Personal Weather Stations






























Interactive Weather Map New forecast layout! Learn more

10-Day Weather Forecast

Advertisements
Track Severe Weather on mobile